Terminal Aerodrome Forecast
Issued by NWS Cleveland, OH

Home | Current Version | Previous Version | Graphics & Text | Print | Product List | Glossary On
Versions: 1 2 3 4 5 6 7 8 9 10 11 12 13 14 15 16 17
000
FTUS41 KCLE 261700
TAFMFD
TAF
KMFD 261740Z 2618/2718 02012G20KT P6SM FEW050
     FM270100 35006KT P6SM SCT045
     FM270900 32006KT P6SM BKN045
     FM271400 33012G20KT P6SM OVC025=

USA.gov is the U.S. government's official web portal to all federal, state and local government web resources and services.